14°C
Porth, Newquay, Cornwall. UK  Tell A Friend
 Ad **Ad
Updated24/05/2017 05:00 
 


More METAR Reports From


Metar Station     Metar Station     Metar Station     Metar Station     Metar Station
EGBB Birmingham     EGBE Coventry     EGLL London Heathrow     EGKK London Gatwick     EGGP Liverpool
EGGW Luton     EGNX East Midlands     EGLC London City     EGCC Mancester Intl     EGSS Stanstead
Local Metars Here                                
EGBB - Birmingham Airpo, United Kingdom
Updated: 24/05/2017 04:50
Clear
Clear
 Wind from varies
Wind: varies 2 mph , 4 km/h, 2 kts
Temperature: 12°C
Dew Point: 12°C
Humidity: 100%
Barometer: 1024 hPa
Summary: Clear
Visibility: greater than 7 miles , 10 km
2017/05/24 03:50 EGBB 240350Z VRB02KT CAVOK 12/12 Q1024
EGBE - Coventry Airport, United Kingdom
Updated: 23/05/2017 16:50

NOT Current
Partly Cloudy
Partly Cloudy
 Wind from SW
Wind: SW 9 mph , 15 km/h, 8 kts
Temperature: 21°C
Dew Point: 15°C
Humidity: 69%
Barometer: 1021 hPa
Clouds: Partly Cloudy
Visibility: 6 miles , 10 km
Cloud details: Partly Cloudy 1067 m
2017/05/23 15:50 EGBE 231550Z 23008KT 210V270 9999 SCT035 21/15 Q1021
 
EGLL - London/Heathrow, United Kingdom
Updated: 24/05/2017 04:50
Clear
Clear
 Wind from WNW
Wind: WNW 5 mph , 7 km/h, 4 kts
Temperature: 13°C
Dew Point: 12°C
Humidity: 94%
Barometer: 1025 hPa
Clouds: Clear
Visibility: 5 miles , 8 km
2017/05/24 03:50 EGLL 240350Z AUTO 29004KT 8000 NCD 13/12 Q1025 NOSIG
EGKK - London/Gatwick A, United Kingdom
Updated: 24/05/2017 04:50
Clear
Clear
 Wind from varies
Wind: varies 2 mph , 4 km/h, 2 kts
Temperature: 11°C
Dew Point: 11°C
Humidity: 100%
Barometer: 1025 hPa
Summary: Clear
Visibility: greater than 7 miles , 10 km
2017/05/24 03:50 EGKK 240350Z VRB02KT CAVOK 11/11 Q1025
 
EGGP - Liverpool Airpor, United Kingdom
Updated: 24/05/2017 04:50
Few Clouds
Few Clouds
 Wind from S
Wind: S 2 mph , 4 km/h, 2 kts
Temperature: 13°C
Dew Point: 12°C
Humidity: 94%
Barometer: 1024 hPa
Clouds: Few Clouds
Visibility: 6 miles , 10 km
Cloud details: Few Clouds 579 m
2017/05/24 03:50 EGGP 240350Z 17002KT 9999 FEW019 13/12 Q1024
EGGW - Luton Airport, United Kingdom
Updated: 24/05/2017 04:50
Clear
Clear
 Wind from W
Wind: W 7 mph , 11 km/h, 6 kts
Temperature: 12°C
Dew Point: 11°C
Humidity: 94%
Barometer: 1024 hPa
Clouds: Clear
Visibility: 5 miles , 8 km
2017/05/24 03:50 EGGW 240350Z AUTO 28006KT 8000 NCD 12/11 Q1024
 
EGNX - East Midlands, United Kingdom
Updated: 24/05/2017 04:50
Clear
Clear
 Wind from SW
Wind: SW 9 mph , 15 km/h, 8 kts
Temperature: 11°C
Dew Point: 10°C
Humidity: 94%
Barometer: 1024 hPa
Summary: Clear
Visibility: greater than 7 miles , 10 km
2017/05/24 03:50 EGNX 240350Z 23008KT CAVOK 11/10 Q1024
EGLC - London City Airp, United Kingdom
Updated: 24/05/2017 04:50
Clear
Clear
 Wind from WSW
Wind: WSW 5 mph , 7 km/h, 4 kts
Temperature: 15°C
Dew Point: 13°C
Humidity: 88%
Barometer: 1025 hPa
Clouds: Clear
Visibility: 6 miles , 10 km
2017/05/24 03:50 EGLC 240350Z AUTO 24004KT 9999 NCD 15/13 Q1025
 
EGCC - Manchester Intl, United Kingdom
Updated: 24/05/2017 04:50
Overcast
Overcast
 Wind from S
Wind: S 5 mph , 7 km/h, 4 kts
Temperature: 14°C
Dew Point: 11°C
Humidity: 82%
Barometer: 1024 hPa
Clouds: Overcast
Visibility: 6 miles , 10 km
Cloud details: Mostly Cloudy 427 m
Overcast 732 m
2017/05/24 03:50 EGCC 240350Z AUTO 17004KT 140V200 9999 BKN014 OVC024 14/11 Q1024 NOSIG
EGSS - Stansted Airport, United Kingdom
Updated: 24/05/2017 04:50
Mist, Clear
Mist, Clear
 Wind from WNW
Wind: WNW 2 mph , 4 km/h, 2 kts
Temperature: 11°C
Dew Point: 11°C
Humidity: 100%
Barometer: 1024 hPa
Summary: Mist
Clouds: Clear
Visibility: 2 miles , 3 km
2017/05/24 03:50 EGSS 240350Z AUTO 29002KT 2800 BR NCD 11/11 Q1024

Metar, brief description

METAR is a format for reporting weather information. A METAR weather report is predominantly used by pilots in fulfillment of a part of a pre-flight weather briefing, and by meteorologists, who use aggregated METAR information to assist in weather forecasting.

Raw METAR is the most popular format in the world for the transmission of weather data. Each METAR report contains essential information about the current weather conditions: Temperature, Dew Point, Barometric Pressure, Wind Speed and Direction, Visibility, Clouds Cover, Current Weather (Rain, Thunderstorms, Hail, Snow and so on...), here is an example of a raw metar report for EGHQ (Newquay airport).
METAR not available